Flight Track Log - Related Links

Times and Time Zones

All times are in EDT time to prevent confusion due to time zone crossing. See the CTL21 flight status page for this flight to view local times or setup timezone preferences in your user account.

Time Position Orientation Groundspeed Altitude Reporting Facility
EDT Latitude Longitude Course Direction KTS MPH feet Rate Location/Type
Mon 05:22:12 PM 42.2014 -85.4050 119° Southeast 135 155 3,700  Level Chicago Center
Mon 05:23:14 PM 42.1814 -85.3589 120° Southeast 140 161 4,400 581 Climbing Chicago Center
Mon 05:25:00 PM 42.1194 -85.2842 120° Southeast  Level FlightAware Approximate
Mon 05:25:00 PM 42.1762 -85.2057 103° East  Level Estimated
Mon 05:26:00 PM 42.1664 -85.1482 103° East  Level Estimated
Mon 05:26:20 PM 42.1239 -85.2272 120° Southeast 134 154 6,100  Level Chicago Center
Mon 05:28:00 PM 42.0674 -85.1578 117° Southeast  Level FlightAware Approximate
Mon 05:30:28 PM 42.0392 -85.0231 117° Southeast 160 184 6,900  Level Chicago Center
Mon 05:31:30 PM 42.0183 -84.9711 118° Southeast 158 182 6,900  Level Chicago Center
Mon 05:32:32 PM 41.9978 -84.9203 119° Southeast 155 178 6,900 48 Level Chicago Center
Mon 05:33:35 PM 41.9728 -84.8608 119° Southeast 152 175 7,000 32 Climbing Chicago Center
Mon 05:35:00 PM 41.9282 -84.7904 117° Southeast  Level FlightAware Approximate
Mon 05:35:00 PM 41.9380 -84.7918 124° Southeast  Level FlightAware Approximate
Mon 05:35:39 PM 41.9311 -84.7592 124° Southeast 155 178 7,000  Level Chicago Center
Mon 05:36:00 PM 41.9082 -84.7381 117° Southeast  Level FlightAware Approximate
Mon 05:37:00 PM 41.8919 -84.6969 119° Southeast  Level FlightAware Approximate
Mon 05:37:43 PM 41.8892 -84.6569 119° Southeast 155 178 7,000  Level Chicago Center
Mon 05:39:00 PM 41.8615 -84.5913 120° Southeast  Level FlightAware Approximate
Mon 05:40:49 PM 41.8258 -84.4964 120° Southeast 151 174 7,000  Level Chicago Center
Mon 05:41:51 PM 41.8050 -84.4469 119° Southeast 151 174 7,000 -48 Level Chicago Center
Mon 05:42:53 PM 41.7831 -84.3964 120° Southeast 153 176 6,900  Descending Chicago Center
Mon 05:44:00 PM 41.7586 -84.3397 120° Southeast  Level FlightAware Approximate
Mon 05:44:57 PM 41.7442 -84.2964 120° Southeast 153 176 7,000  Level Chicago Center
Mon 05:45:59 PM 41.7206 -84.2389 119° Southeast 150 173 6,900 Descending Chicago Center
Mon 05:46:00 PM 41.7096 -84.2343 120° Southeast  Level FlightAware Approximate
Mon 05:48:00 PM 41.6755 -84.1372 121° Southeast  Level FlightAware Approximate
Mon 05:55:00 PM 41.5184 -83.7853 121° Southeast  Level FlightAware Approximate
Mon 05:56:00 PM 41.4959 -83.7352 121° Southeast  Level FlightAware Approximate
Mon 05:57:00 PM 41.4733 -83.6851 121° Southeast  Level FlightAware Approximate
Mon 05:58:00 PM 41.4508 -83.6350 121° Southeast  Level FlightAware Approximate
Mon 05:59:00 PM 41.4487 -83.5766 92° East  Level FlightAware Approximate
Mon 06:00:00 PM 41.4473 -83.5182 92° East  Level FlightAware Approximate
Mon 06:01:00 PM 41.4459 -83.4599 92° East  Level FlightAware Approximate
Mon 06:02:00 PM 41.4445 -83.4015 92° East  Level FlightAware Approximate
Mon 06:03:00 PM 41.4430 -83.3431 92° East  Level FlightAware Approximate
Mon 06:04:00 PM 41.4415 -83.2848 92° East  Level FlightAware Approximate
Mon 06:05:00 PM 41.4400 -83.2264 92° East  Level FlightAware Approximate
Mon 06:06:00 PM 41.4384 -83.1680 92° East  Level FlightAware Approximate
Mon 06:07:00 PM 41.4369 -83.1097 92° East  Level FlightAware Approximate
Mon 06:08:00 PM 41.4352 -83.0513 92° East  Level FlightAware Approximate
Mon 06:09:00 PM 41.4336 -82.9930 92° East  Level FlightAware Approximate
Mon 06:10:00 PM 41.4334 -82.9346 90° East  Level FlightAware Approximate
Mon 06:10:59 PM 41.4433 -82.9569 90° East 149 171 7,100  Level Cleveland Center
Mon 06:11:00 PM 41.4334 -82.8762 90° East  Level FlightAware Approximate
Mon 06:11:53 PM 41.4508 -82.9019 80° East 152 175 7,100  Level Cleveland Center
Mon 06:12:00 PM 41.4334 -82.8178 90° East  Level FlightAware Approximate
Mon 06:12:54 PM 41.4558 -82.8494 83° East 151 174 7,100  Level Cleveland Center
Mon 06:13:00 PM 41.4334 -82.7594 90° East  Level FlightAware Approximate
Mon 06:13:55 PM 41.4611 -82.7942 83° East 151 174 7,100  Level Cleveland Center
Mon 06:14:00 PM 41.4334 -82.7010 90° East  Level FlightAware Approximate
Mon 06:14:56 PM 41.4644 -82.7389 85° East 147 169 7,000  Level Cleveland Center
Mon 06:15:00 PM 41.4333 -82.6426 90° East  Level FlightAware Approximate
Mon 06:15:59 PM 41.4717 -82.6839 80° East 143 165 7,100  Level Cleveland Center
Mon 06:16:00 PM 41.4334 -82.5842 90° East  Level FlightAware Approximate
Mon 06:17:00 PM 41.4789 -82.6286 80° East 149 171 7,000  Level Cleveland Center
Mon 06:18:00 PM 41.4800 -82.5731 88° East 150 173 7,100 -99 Climbing Cleveland Center
Mon 06:19:01 PM 41.4892 -82.5153 78° East 156 180 6,800 -464 Descending Cleveland Center
Mon 06:21:01 PM 41.4994 -82.3908 84° East 165 190 5,700 -530 Descending Cleveland Center
Mon 06:22:02 PM 41.5089 -82.3300 78° East 167 192 5,200 -545 Descending Cleveland Center
Mon 06:23:02 PM 41.5161 -82.2692 81° East 163 188 4,600 -563 Descending Cleveland Center
Mon 06:25:00 PM 41.4667 -82.1801 90° East  Level FlightAware Approximate
Mon 06:26:07 PM 41.5561 -82.0869 90° East 169 194 2,900  Level Cleveland Center
Mon 06:27:06 PM 41.5694 -82.0264 74° East 167 192 2,200 -200 Descending Cleveland Center
Mon 06:28:07 PM 41.5722 -81.9736 86° East 140 161 2,500 -169 Climbing Cleveland Center
Mon 06:30:04 PM 41.5525 -81.8678 104° East 158 182 1,700 -268 Descending Cleveland Center
Mon 06:31:06 PM 41.5364 -81.8231 116° Southeast 132 152 1,700 -50 Level Cleveland Center
Mon 06:32:04 PM 41.5244 -81.7758 109° East 131 151 1,600 -150 Descending Cleveland Center
Mon 06:33:06 PM 41.5144 -81.7339 108° East 120 138 1,400 -194 Descending Cleveland Center

Login

Don't have an account? Register now (free) for customized features, flight alerts, and more!